AST,Max TemperatureF,Mean TemperatureF,Min TemperatureF,Max Dew PointF,MeanDew PointF,Min DewpointF,Max Humidity, Mean Humidity, Min Humidity, Max Sea Level PressureIn, Mean Sea Level PressureIn, Min Sea Level PressureIn, Max VisibilityMiles, Mean VisibilityMiles, Min VisibilityMiles, Max Wind SpeedMPH, Mean Wind SpeedMPH, Max Gust SpeedMPH,PrecipitationIn, CloudCover, Events, WindDirDegrees
2011-11-1,47,42,36,37,35,31,92,78,54,30.45,30.41,30.36,,,,16,8,,0.00,,,231
2011-11-2,48,42,37,40,37,35,96,81,61,30.40,30.35,30.29,,,,12,4,,0.00,,,216
2011-11-3,50,44,37,43,40,36,95,85,70,30.27,30.07,29.85,,,,18,7,18,0.00,,,211
2011-11-4,48,44,40,45,40,30,92,80,64,29.82,29.73,29.68,,,,32,17,39,0.00,,,289
2011-11-5,40,38,37,36,31,25,89,72,60,30.30,30.04,29.81,,,,31,26,39,0.00,,,332
2011-11-6,51,41,31,39,30,25,82,63,43,30.31,30.23,30.12,,,,24,16,31,0.00,,,262
2011-11-7,53,46,39,45,39,30,93,79,42,30.20,30.13,30.02,,,,17,10,25,0.00,,,236
2011-11-8,56,49,42,46,42,39,93,79,57,30.17,30.03,29.96,,,,18,11,18,0.00,,,269
2011-11-9,54,48,41,45,41,39,95,83,59,30.27,30.23,30.17,,,,8,5,,0.00,,,276
2011-11-10,55,50,45,50,46,42,94,88,63,30.28,30.21,30.03,,,,20,7,,0.00,,,145
2011-11-11,58,54,50,58,53,48,98,95,92,29.99,29.50,29.14,,,,40,30,52,0.00,,,155
2011-11-12,47,42,38,46,33,29,93,71,54,30.05,29.75,29.25,,,,31,22,45,0.00,,,245
2011-11-13,52,47,42,45,40,32,93,77,54,30.22,30.17,30.07,,,,15,11,,0.00,,,228
2011-11-14,55,50,46,52,50,45,96,92,86,30.17,29.96,29.80,,,,32,17,43,0.00,,,195
2011-11-15,55,53,51,54,51,48,97,96,86,29.80,29.68,29.57,,,,30,22,45,0.00,,,228
2011-11-16,52,48,45,47,42,34,94,79,52,30.03,29.96,29.79,,,,25,13,23,0.00,,,233
2011-11-17,51,48,43,51,47,40,99,94,84,29.88,29.61,29.47,,,,23,15,30,0.00,,,343
2011-11-18,42,38,31,40,34,26,96,87,72,30.19,29.71,29.37,,,,32,25,40,0.00,,,296
2011-11-19,48,39,30,43,31,22,82,72,56,30.38,30.28,30.20,,,,28,18,39,0.00,,,239
2011-11-20,53,50,47,49,45,42,95,83,77,30.21,30.00,29.82,,,,39,24,52,0.00,,,224
2011-11-21,48,41,34,42,30,22,81,68,59,30.30,30.13,29.90,,,,23,19,,0.00,,,334
2011-11-22,36,32,28,24,22,18,71,65,58,30.38,30.33,30.30,,,,16,12,17,0.00,,,287
2011-11-23,35,31,27,35,25,17,100,79,56,30.34,30.14,29.64,,,,34,10,44,0.00,,,208
2011-11-24,37,36,34,34,32,27,99,84,73,29.99,29.76,29.58,,,,36,29,46,0.00,,,360
2011-11-25,46,38,29,43,33,27,89,82,73,30.14,30.06,29.92,,,,25,12,34,0.00,,,224
2011-11-26,48,44,40,46,40,34,90,82,71,30.24,30.01,29.87,,,,24,18,34,0.00,,,269
2011-11-27,39,38,36,32,30,28,80,72,65,30.46,30.39,30.26,,,,16,10,,0.00,,,30
2011-11-28,52,46,39,49,43,32,94,86,74,30.38,30.11,29.90,,,,30,19,40,0.00,,,193
2011-11-29,46,42,40,44,38,34,93,81,70,30.29,30.21,30.05,,,,23,15,30,0.00,,,217
2011-11-30,54,42,30,53,46,30,99,96,85,30.20,29.97,29.72,,,,30,14,38,0.00,,,162